createdAt,value
2018-04-30T03:50:26.874Z,19.50
2018-04-30T03:52:55.727Z,19.60
2018-04-30T03:55:25.381Z,19.60
2018-04-30T03:57:55.372Z,19.50
2018-04-30T04:00:42.232Z,19.60
2018-04-30T04:03:28.936Z,19.60
2018-04-30T04:09:10.099Z,19.80
2018-04-30T04:11:38.950Z,19.70
2018-04-30T04:14:07.830Z,19.80
2018-04-30T04:16:36.760Z,19.80
2018-04-30T04:19:06.381Z,19.90
2018-04-30T04:21:35.230Z,19.90
2018-04-30T04:24:04.073Z,20.00
2018-04-30T04:26:32.981Z,20.10
2018-04-30T04:29:01.895Z,20.10
2018-04-30T04:31:30.869Z,20.10
2018-04-30T04:33:59.789Z,20.20
2018-04-30T04:36:28.743Z,20.60
2018-04-30T04:38:57.728Z,21.20
2018-04-30T04:41:26.667Z,21.70
2018-04-30T04:43:55.536Z,21.90
2018-04-30T04:46:24.502Z,22.20
2018-04-30T04:48:53.377Z,22.50
2018-04-30T04:51:22.573Z,23.00
2018-04-30T04:53:51.711Z,23.40
2018-04-30T04:56:20.686Z,23.60
2018-04-30T04:58:49.601Z,24.00
2018-04-30T05:01:18.490Z,24.30
2018-04-30T05:03:47.377Z,24.60
2018-04-30T05:06:16.312Z,24.50
2018-04-30T05:08:46.014Z,25.30
2018-04-30T05:11:14.977Z,25.20
2018-04-30T05:13:43.880Z,26.10
2018-04-30T05:16:12.833Z,26.60
2018-04-30T05:18:41.711Z,27.00
2018-04-30T05:21:11.415Z,26.80
2018-04-30T05:23:40.364Z,26.80
2018-04-30T05:26:09.268Z,26.00
2018-04-30T05:28:38.152Z,25.30
2018-04-30T05:31:07.100Z,24.80
2018-04-30T05:33:35.984Z,24.30
2018-04-30T05:36:04.939Z,23.90
2018-04-30T05:38:33.973Z,23.50
2018-04-30T05:41:02.846Z,23.30
2018-04-30T05:43:31.711Z,23.20
2018-04-30T05:46:00.656Z,22.90
2018-04-30T05:48:29.558Z,22.60
2018-04-30T05:50:58.440Z,22.80
2018-04-30T05:53:27.580Z,23.50
2018-04-30T05:55:57.189Z,24.10
2018-04-30T05:58:26.136Z,24.00
2018-04-30T06:00:55.074Z,23.70
2018-04-30T06:03:23.948Z,23.50
2018-04-30T06:05:53.681Z,24.80
2018-04-30T06:08:22.612Z,24.70
2018-04-30T06:10:51.631Z,25.20
2018-04-30T06:13:20.586Z,24.80
2018-04-30T06:15:49.526Z,23.50
2018-04-30T06:18:18.383Z,23.10
2018-04-30T06:20:47.278Z,23.20
2018-04-30T06:23:16.257Z,24.00
2018-04-30T06:25:45.175Z,24.90
2018-04-30T06:28:14.959Z,25.40
2018-04-30T06:30:43.902Z,25.40
2018-04-30T06:33:12.813Z,26.70
2018-04-30T06:35:41.746Z,26.60
2018-04-30T06:38:10.677Z,25.90
2018-04-30T06:40:40.482Z,25.80
2018-04-30T06:43:10.193Z,25.20
2018-04-30T06:45:39.903Z,24.70
2018-04-30T06:48:09.793Z,24.60
2018-04-30T06:50:38.693Z,24.00
2018-04-30T06:53:08.341Z,23.10
2018-04-30T06:55:37.271Z,23.00
2018-04-30T06:58:06.224Z,23.10
2018-04-30T07:00:35.180Z,23.30
2018-04-30T07:03:04.158Z,23.90
2018-04-30T07:05:33.068Z,24.50
2018-04-30T07:08:02.796Z,24.10
2018-04-30T07:10:31.702Z,24.10
2018-04-30T07:13:00.677Z,23.40
2018-04-30T07:15:29.558Z,23.00
2018-04-30T07:17:59.183Z,22.30
2018-04-30T07:20:28.125Z,22.20
2018-04-30T07:22:57.083Z,22.10
2018-04-30T07:25:25.968Z,22.00
2018-04-30T07:27:54.958Z,22.00
2018-04-30T07:30:23.806Z,21.80
2018-04-30T07:32:53.467Z,21.70
2018-04-30T07:35:22.415Z,21.60
2018-04-30T07:37:52.105Z,21.70
2018-04-30T07:40:21.770Z,21.70
2018-04-30T07:42:50.704Z,21.60
2018-04-30T07:45:19.564Z,21.20
2018-04-30T07:47:48.520Z,21.10
2018-04-30T07:50:17.437Z,21.10
2018-04-30T07:52:47.090Z,21.30
2018-04-30T07:55:15.952Z,21.30
2018-04-30T07:57:44.919Z,21.30
2018-04-30T08:00:13.888Z,21.60
2018-04-30T08:02:43.520Z,21.50
2018-04-30T08:05:12.412Z,21.40
2018-04-30T08:07:41.373Z,21.50
2018-04-30T08:10:10.285Z,21.70
2018-04-30T08:12:39.240Z,22.30
2018-04-30T08:15:08.154Z,22.50
2018-04-30T08:17:37.043Z,22.80
2018-04-30T08:20:05.962Z,23.40
2018-04-30T08:22:34.870Z,24.50
2018-04-30T08:25:03.793Z,25.40
2018-04-30T08:27:33.524Z,26.20
2018-04-30T08:30:02.466Z,26.10
2018-04-30T08:32:31.332Z,26.80
2018-04-30T08:35:00.297Z,27.70
2018-04-30T08:37:29.146Z,28.30
2018-04-30T08:39:58.067Z,28.00
2018-04-30T08:42:27.750Z,28.30
2018-04-30T08:44:56.707Z,28.20
2018-04-30T08:47:25.590Z,27.20
2018-04-30T08:49:54.527Z,26.60
2018-04-30T08:52:23.475Z,26.50
2018-04-30T08:54:52.473Z,26.50
2018-04-30T08:57:21.484Z,26.90
2018-04-30T08:59:50.470Z,26.50
2018-04-30T09:02:19.454Z,27.30
2018-04-30T09:04:56.420Z,28.90
2018-04-30T09:07:25.729Z,29.20
2018-04-30T09:09:54.665Z,29.50
2018-04-30T09:12:23.568Z,29.90
2018-04-30T09:14:53.309Z,31.30
2018-04-30T09:17:22.154Z,31.20
2018-04-30T09:19:51.116Z,31.10
2018-04-30T09:22:20.046Z,31.30
2018-04-30T09:24:49.700Z,30.90
2018-04-30T09:27:18.600Z,30.90
2018-04-30T09:29:47.505Z,31.20
2018-04-30T09:32:16.515Z,31.40
2018-04-30T09:34:45.486Z,31.80
2018-04-30T09:37:14.377Z,31.30
2018-04-30T09:39:44.891Z,30.40
2018-04-30T09:42:13.838Z,30.30
2018-04-30T09:44:43.476Z,30.60
2018-04-30T09:47:13.402Z,30.50
2018-04-30T09:49:51.419Z,30.60
2018-04-30T09:52:20.434Z,29.80
2018-04-30T09:54:49.359Z,29.40
2018-04-30T09:57:18.368Z,29.20
2018-04-30T09:59:47.334Z,28.60
2018-04-30T10:02:17.488Z,28.40
2018-04-30T10:04:46.496Z,28.40
2018-04-30T10:07:15.565Z,28.40
2018-04-30T10:09:44.474Z,29.20
2018-04-30T10:12:13.404Z,30.20
2018-04-30T10:14:42.344Z,30.00
2018-04-30T10:17:12.038Z,29.60
2018-04-30T10:19:40.934Z,29.60
2018-04-30T10:22:09.809Z,29.70
2018-04-30T10:24:39.506Z,30.60
2018-04-30T10:27:09.222Z,30.90
2018-04-30T10:29:38.120Z,30.90
2018-04-30T10:32:14.197Z,31.20
2018-04-30T10:34:43.016Z,30.60
2018-04-30T10:37:11.994Z,29.70
2018-04-30T10:39:40.902Z,29.10
2018-04-30T10:42:10.577Z,28.90
2018-04-30T10:44:39.553Z,29.10
2018-04-30T10:47:08.507Z,29.00
2018-04-30T10:49:37.400Z,28.80
2018-04-30T10:52:06.380Z,28.60
2018-04-30T10:54:35.346Z,28.00
2018-04-30T10:57:04.246Z,27.70
2018-04-30T10:59:33.235Z,27.50
2018-04-30T11:02:02.250Z,27.70
2018-04-30T11:04:31.234Z,27.70
2018-04-30T11:07:00.131Z,27.80
2018-04-30T11:09:29.019Z,27.70
2018-04-30T11:11:57.939Z,27.80
2018-04-30T11:14:27.592Z,27.70
2018-04-30T11:16:56.494Z,27.60
2018-04-30T11:19:25.386Z,27.70
2018-04-30T11:21:54.240Z,27.80
2018-04-30T11:24:23.158Z,28.00
2018-04-30T11:26:52.081Z,28.50
2018-04-30T11:29:20.973Z,28.00
2018-04-30T11:31:49.931Z,27.30
2018-04-30T11:34:18.812Z,27.60
2018-04-30T11:36:47.746Z,26.90
2018-04-30T11:39:16.668Z,26.60
2018-04-30T11:41:45.622Z,26.80
2018-04-30T11:44:14.526Z,27.20
2018-04-30T11:46:43.496Z,27.40
2018-04-30T11:49:12.494Z,27.50
2018-04-30T11:51:41.475Z,27.90
2018-04-30T11:54:10.397Z,28.30
2018-04-30T11:56:39.282Z,28.70
2018-04-30T11:59:09.551Z,29.20
2018-04-30T12:01:38.578Z,29.00
2018-04-30T12:04:07.449Z,29.20
2018-04-30T12:06:36.397Z,29.50
2018-04-30T12:09:06.704Z,29.60
2018-04-30T12:11:35.643Z,29.70
2018-04-30T12:14:05.627Z,29.70
2018-04-30T12:16:34.590Z,29.00
2018-04-30T12:19:04.758Z,28.50
2018-04-30T12:21:34.224Z,28.30
2018-04-30T12:24:03.133Z,28.00
2018-04-30T12:26:32.790Z,27.50
2018-04-30T12:29:01.737Z,27.40
2018-04-30T12:31:30.660Z,27.60
2018-04-30T12:33:59.603Z,27.70
2018-04-30T12:36:29.388Z,27.60
2018-04-30T12:38:58.943Z,27.50
2018-04-30T12:41:27.884Z,27.40
2018-04-30T12:43:57.551Z,26.60
2018-04-30T12:46:26.490Z,26.40
2018-04-30T12:48:55.469Z,26.60
2018-04-30T12:51:24.402Z,26.90
2018-04-30T12:53:54.040Z,27.40
2018-04-30T12:56:22.989Z,27.30
2018-04-30T12:58:52.005Z,27.60
2018-04-30T13:01:20.890Z,27.40
2018-04-30T13:03:50.599Z,27.50
2018-04-30T13:06:19.528Z,27.40
2018-04-30T13:08:48.488Z,27.40
2018-04-30T13:11:17.411Z,27.50
2018-04-30T13:13:46.397Z,27.40
2018-04-30T13:16:15.354Z,27.30
2018-04-30T13:18:45.009Z,26.90
2018-04-30T13:21:13.908Z,26.90
2018-04-30T13:23:42.818Z,26.90
2018-04-30T13:26:11.790Z,26.80
2018-04-30T13:28:40.783Z,26.70
2018-04-30T13:31:13.323Z,26.80
2018-04-30T13:33:42.266Z,26.70
2018-04-30T13:36:11.172Z,26.80
2018-04-30T13:38:40.080Z,26.80
2018-04-30T13:41:09.869Z,26.80
2018-04-30T13:43:38.888Z,26.70
2018-04-30T13:46:07.781Z,26.80
2018-04-30T13:48:36.706Z,26.90
2018-04-30T13:51:06.212Z,26.90
2018-04-30T13:53:36.244Z,26.80
2018-04-30T13:56:06.647Z,26.80
2018-04-30T13:58:45.179Z,26.70
2018-04-30T14:01:15.192Z,26.60
2018-04-30T14:03:44.191Z,26.60
2018-04-30T14:06:13.062Z,26.70
2018-04-30T14:08:41.981Z,26.70
2018-04-30T14:11:11.902Z,26.70
2018-04-30T14:13:40.823Z,26.60
2018-04-30T14:16:09.711Z,26.50
2018-04-30T14:18:38.646Z,26.50
2018-04-30T14:21:10.798Z,26.50
2018-04-30T14:23:43.216Z,26.40
2018-04-30T14:26:12.220Z,26.40
2018-04-30T14:28:41.571Z,26.30
2018-04-30T14:31:10.589Z,26.30
2018-04-30T14:33:39.506Z,26.20
2018-04-30T14:36:08.405Z,26.20
2018-04-30T14:38:38.850Z,26.10
2018-04-30T14:41:31.551Z,26.00
2018-04-30T14:44:01.597Z,25.90
2018-04-30T14:46:30.541Z,25.80
2018-04-30T14:48:59.425Z,25.80
2018-04-30T14:51:28.395Z,25.70
2018-04-30T14:53:57.285Z,25.70
2018-04-30T14:56:26.185Z,25.70
2018-04-30T14:58:55.080Z,25.80
2018-04-30T15:01:23.932Z,25.90
2018-04-30T15:03:53.567Z,25.90
2018-04-30T15:06:22.439Z,25.80
2018-04-30T15:08:52.113Z,26.00
2018-04-30T15:11:21.111Z,26.00
2018-04-30T15:13:49.981Z,26.00
2018-04-30T15:16:18.897Z,25.90
2018-04-30T15:18:47.862Z,25.90
2018-04-30T15:21:16.872Z,25.90
2018-04-30T15:23:45.834Z,25.80
2018-04-30T15:26:14.814Z,25.70
2018-04-30T15:28:45.340Z,25.70
2018-04-30T15:31:14.200Z,25.60
2018-04-30T15:33:43.891Z,25.50
2018-04-30T15:36:12.801Z,25.50
2018-04-30T15:38:42.528Z,25.50
2018-04-30T15:41:11.549Z,25.40
2018-04-30T15:43:40.421Z,25.40
2018-04-30T15:46:09.329Z,25.30
2018-04-30T15:48:38.300Z,25.40
2018-04-30T15:51:07.210Z,25.30
2018-04-30T15:53:36.092Z,25.20
2018-04-30T15:56:05.021Z,25.10
2018-04-30T15:58:33.945Z,25.20
2018-04-30T16:01:03.750Z,25.20
2018-04-30T16:03:33.472Z,25.20
2018-04-30T16:06:03.158Z,25.10
2018-04-30T16:08:32.052Z,25.10
2018-04-30T16:11:00.922Z,25.10
2018-04-30T16:13:29.918Z,25.10
2018-04-30T16:15:58.836Z,25.10
2018-04-30T16:18:28.725Z,25.00
2018-04-30T16:20:57.626Z,25.00
2018-04-30T16:23:26.578Z,25.00
2018-04-30T16:25:55.524Z,24.90
2018-04-30T16:28:25.174Z,24.90
2018-04-30T16:30:54.070Z,24.90
2018-04-30T16:33:22.964Z,24.90
2018-04-30T16:35:51.831Z,24.90
2018-04-30T16:38:20.728Z,24.80
2018-04-30T16:40:49.708Z,24.70
2018-04-30T16:43:18.619Z,24.70
2018-04-30T16:45:47.508Z,24.70
2018-04-30T16:48:16.431Z,24.70
2018-04-30T16:50:45.312Z,24.60
2018-04-30T16:53:14.264Z,24.60
2018-04-30T16:55:43.279Z,24.50
2018-04-30T16:58:12.172Z,24.50
2018-04-30T17:00:41.062Z,24.40
2018-04-30T17:03:11.083Z,24.40
2018-04-30T17:05:40.764Z,24.30
2018-04-30T17:08:09.701Z,24.20
2018-04-30T17:10:38.674Z,24.20
2018-04-30T17:13:07.535Z,24.20
2018-04-30T17:15:36.671Z,24.20
2018-04-30T17:18:06.477Z,24.10
2018-04-30T17:20:35.372Z,24.10
2018-04-30T17:23:04.306Z,24.10
2018-04-30T17:25:33.204Z,24.10
2018-04-30T17:28:02.085Z,24.00
2018-04-30T17:30:31.747Z,23.90
2018-04-30T17:33:00.669Z,23.80
2018-04-30T17:35:29.626Z,23.80
2018-04-30T17:37:58.593Z,23.80
2018-04-30T17:40:27.482Z,23.70
2018-04-30T17:42:56.505Z,23.70
2018-04-30T17:45:26.261Z,23.50
2018-04-30T17:47:56.015Z,23.40
2018-04-30T17:50:24.894Z,23.30
2018-04-30T17:52:53.753Z,23.40
2018-04-30T17:55:23.501Z,23.20
2018-04-30T17:57:52.462Z,23.10
2018-04-30T18:00:22.122Z,23.00
2018-04-30T18:02:52.152Z,22.90
2018-04-30T18:05:21.162Z,22.90
2018-04-30T18:07:50.094Z,22.80
2018-04-30T18:10:19.054Z,22.70
2018-04-30T18:12:48.046Z,22.60
2018-04-30T18:15:16.918Z,22.50
2018-04-30T18:17:46.391Z,22.40
2018-04-30T18:20:15.331Z,22.40
2018-04-30T18:22:44.988Z,22.30
2018-04-30T18:25:13.901Z,22.20
2018-04-30T18:27:42.882Z,22.30
2018-04-30T18:30:11.772Z,22.30
2018-04-30T18:32:40.713Z,22.20
2018-04-30T18:35:09.584Z,22.20
2018-04-30T18:37:39.284Z,22.10
2018-04-30T18:40:08.196Z,22.00
2018-04-30T18:42:37.880Z,22.00
2018-04-30T18:45:06.820Z,21.90
2018-04-30T18:47:35.796Z,22.00
2018-04-30T18:50:04.679Z,21.90
2018-04-30T18:52:34.352Z,21.80
2018-04-30T18:55:03.275Z,21.80
2018-04-30T18:57:32.954Z,21.90
2018-04-30T19:00:01.822Z,21.80
2018-04-30T19:02:30.736Z,21.90
2018-04-30T19:04:59.608Z,21.90
2018-04-30T19:07:28.567Z,21.90
2018-04-30T19:09:59.006Z,21.90
2018-04-30T19:12:27.920Z,21.80
2018-04-30T19:14:56.882Z,21.70
2018-04-30T19:17:25.784Z,21.70
2018-04-30T19:19:54.766Z,21.60
2018-04-30T19:22:23.622Z,21.50
2018-04-30T19:24:53.487Z,21.30
2018-04-30T19:27:22.373Z,21.30
2018-04-30T19:29:51.244Z,21.40
2018-04-30T19:32:20.278Z,21.40
2018-04-30T19:34:49.211Z,21.40
2018-04-30T19:37:18.883Z,21.30
2018-04-30T19:39:47.825Z,21.30
2018-04-30T19:42:16.696Z,21.30
2018-04-30T19:44:46.450Z,21.20
2018-04-30T19:47:15.360Z,21.20
2018-04-30T19:49:44.268Z,21.10
2018-04-30T19:52:13.281Z,21.10
2018-04-30T19:54:47.659Z,21.00
2018-04-30T19:57:17.001Z,21.00
2018-04-30T19:59:45.941Z,21.00
2018-04-30T20:02:19.258Z,20.90
2018-04-30T20:04:49.260Z,20.80
2018-04-30T20:07:18.192Z,20.80
2018-04-30T20:09:47.134Z,20.70
2018-04-30T20:12:15.991Z,20.60
2018-04-30T20:14:44.964Z,20.50
2018-04-30T20:17:14.639Z,20.40
2018-04-30T20:19:44.080Z,20.30
2018-04-30T20:22:13.882Z,20.30
2018-04-30T20:24:43.515Z,20.30
2018-04-30T20:27:12.434Z,20.20
2018-04-30T20:29:41.308Z,20.30
2018-04-30T20:32:10.201Z,20.30
2018-04-30T20:34:40.050Z,20.30
2018-04-30T20:37:09.094Z,20.20
2018-04-30T20:39:38.002Z,20.10
2018-04-30T20:42:06.917Z,20.10
2018-04-30T20:44:35.855Z,20.10
2018-04-30T20:47:05.534Z,20.00
2018-04-30T20:49:34.443Z,20.00
2018-04-30T20:52:04.145Z,20.00
2018-04-30T20:54:33.064Z,19.90
2018-04-30T20:57:01.950Z,20.00
2018-04-30T20:59:30.866Z,20.00
2018-04-30T21:02:00.557Z,19.90
2018-04-30T21:04:30.418Z,19.80
2018-04-30T21:06:59.451Z,19.90
2018-04-30T21:09:29.080Z,19.80
2018-04-30T21:11:57.988Z,19.80
2018-04-30T21:14:26.902Z,19.80
2018-04-30T21:16:55.827Z,19.80
2018-04-30T21:19:25.582Z,19.60
2018-04-30T21:21:54.474Z,19.60
2018-04-30T21:24:23.569Z,19.50
2018-04-30T21:26:52.368Z,19.50
2018-04-30T21:29:21.251Z,19.30
2018-04-30T21:31:50.235Z,19.20
2018-04-30T21:34:19.144Z,19.10
2018-04-30T21:36:48.094Z,19.10
2018-04-30T21:39:18.172Z,19.00
2018-04-30T21:41:47.124Z,18.90
2018-04-30T21:44:16.056Z,18.90
2018-04-30T21:46:45.729Z,18.90
2018-04-30T21:49:14.663Z,18.80
2018-04-30T21:51:43.524Z,18.80
2018-04-30T21:54:12.512Z,18.80
2018-04-30T21:56:42.236Z,18.70
2018-04-30T21:59:11.230Z,18.70
2018-04-30T22:01:40.165Z,18.60
2018-04-30T22:04:09.097Z,18.60
2018-04-30T22:06:37.973Z,18.60
2018-04-30T22:09:06.932Z,18.60
2018-04-30T22:11:36.573Z,18.50
2018-04-30T22:14:05.560Z,18.50
2018-04-30T22:16:35.074Z,18.50
2018-04-30T22:19:03.989Z,18.60
2018-04-30T22:21:32.969Z,18.50
2018-04-30T22:24:03.490Z,18.50
2018-04-30T22:26:33.374Z,18.50
2018-04-30T22:29:02.269Z,18.60
2018-04-30T22:31:31.947Z,18.50
2018-04-30T22:34:12.395Z,18.40
2018-04-30T22:36:42.431Z,18.40
2018-04-30T22:39:12.115Z,18.40
2018-04-30T22:41:41.868Z,18.30
2018-04-30T22:44:10.761Z,18.30
2018-04-30T22:46:40.457Z,18.30
2018-04-30T22:49:09.786Z,18.30
2018-04-30T22:51:38.760Z,18.30
2018-04-30T22:54:07.701Z,18.20
2018-04-30T22:56:36.619Z,18.10
2018-04-30T22:59:05.532Z,18.00
2018-04-30T23:01:34.500Z,18.00
2018-04-30T23:04:03.430Z,17.90
2018-04-30T23:06:32.347Z,17.90
2018-04-30T23:09:01.261Z,17.80
2018-04-30T23:11:30.174Z,17.70
2018-04-30T23:13:59.864Z,17.70
2018-04-30T23:16:29.088Z,17.60
2018-04-30T23:18:57.991Z,17.60
2018-04-30T23:21:26.891Z,17.60
2018-04-30T23:23:55.790Z,17.60
2018-04-30T23:26:24.686Z,17.60
2018-04-30T23:28:53.703Z,17.60
2018-04-30T23:31:22.625Z,17.60
2018-04-30T23:33:51.540Z,17.60
2018-04-30T23:36:20.527Z,17.60
2018-04-30T23:38:49.437Z,17.50
2018-04-30T23:41:18.331Z,17.40
2018-04-30T23:43:47.250Z,17.30
2018-04-30T23:46:16.167Z,17.20
2018-04-30T23:48:45.810Z,17.00
2018-04-30T23:51:14.699Z,17.00
2018-04-30T23:53:43.595Z,17.00
2018-04-30T23:56:12.520Z,16.90
2018-04-30T23:58:41.474Z,16.90
